sensor_id;sensor_type;location;lat;lon;timestamp;pressure;altitude;pressure_sealevel;temperature;humidity
32789;BME280;19141;48.980;8.410;2022-07-29T04:22:47;99935.34;;;17.58;94.16
32789;BME280;19141;48.980;8.410;2022-07-29T04:25:12;99940.31;;;17.61;93.83
32789;BME280;19141;48.980;8.410;2022-07-29T04:27:37;99936.88;;;17.54;94.24
32789;BME280;19141;48.980;8.410;2022-07-29T04:30:23;99942.25;;;17.54;93.91
32789;BME280;19141;48.980;8.410;2022-07-29T04:32:48;99943.00;;;17.61;94.18
32789;BME280;19141;48.980;8.410;2022-07-29T04:35:14;99945.91;;;17.60;94.00
32789;BME280;19141;48.980;8.410;2022-07-29T04:37:39;99941.78;;;17.57;94.16
32789;BME280;19141;48.980;8.410;2022-07-29T04:40:05;99957.53;;;17.60;94.20
32789;BME280;19141;48.980;8.410;2022-07-29T04:42:31;99954.34;;;17.63;93.92
32789;BME280;19141;48.980;8.410;2022-07-29T04:44:56;99949.34;;;17.67;93.68
32789;BME280;19141;48.980;8.410;2022-07-29T04:47:21;99951.19;;;17.67;93.48
32789;BME280;19141;48.980;8.410;2022-07-29T04:49:47;99958.69;;;17.64;94.42
32789;BME280;19141;48.980;8.410;2022-07-29T04:52:12;99960.13;;;17.67;93.43
32789;BME280;19141;48.980;8.410;2022-07-29T04:54:38;99956.59;;;17.67;93.90
32789;BME280;19141;48.980;8.410;2022-07-29T04:57:03;99958.25;;;17.68;93.84
32789;BME280;19141;48.980;8.410;2022-07-29T04:59:29;99957.78;;;17.71;93.78
32789;BME280;19141;48.980;8.410;2022-07-29T05:01:54;99960.28;;;17.72;93.44
32789;BME280;19141;48.980;8.410;2022-07-29T05:04:19;99957.50;;;17.79;93.39
32789;BME280;19141;48.980;8.410;2022-07-29T05:06:45;99966.78;;;17.83;93.48
32789;BME280;19141;48.980;8.410;2022-07-29T05:09:10;99973.97;;;17.89;93.23
32789;BME280;19141;48.980;8.410;2022-07-29T05:11:36;99967.50;;;17.90;93.06
32789;BME280;19141;48.980;8.410;2022-07-29T05:14:01;99969.16;;;17.91;93.46
32789;BME280;19141;48.980;8.410;2022-07-29T05:16:26;99973.88;;;17.96;93.49
32789;BME280;19141;48.980;8.410;2022-07-29T05:18:52;99973.19;;;18.00;93.46
32789;BME280;19141;48.980;8.410;2022-07-29T05:21:18;99977.28;;;18.03;93.17
32789;BME280;19141;48.980;8.410;2022-07-29T05:23:43;99970.75;;;18.10;92.68
32789;BME280;19141;48.980;8.410;2022-07-29T05:26:08;99969.59;;;18.18;92.35
32789;BME280;19141;48.980;8.410;2022-07-29T05:28:34;99971.63;;;18.23;92.25
32789;BME280;19141;48.980;8.410;2022-07-29T05:31:00;99966.81;;;18.25;92.05
32789;BME280;19141;48.980;8.410;2022-07-29T05:33:25;99989.94;;;18.32;91.61
32789;BME280;19141;48.980;8.410;2022-07-29T05:35:51;99971.41;;;18.36;90.82
32789;BME280;19141;48.980;8.410;2022-07-29T05:38:16;99971.41;;;18.36;90.73
32789;BME280;19141;48.980;8.410;2022-07-29T05:40:42;99980.09;;;18.38;89.45
32789;BME280;19141;48.980;8.410;2022-07-29T05:43:07;99988.31;;;18.43;88.40
32789;BME280;19141;48.980;8.410;2022-07-29T05:45:32;99983.50;;;18.45;86.91
32789;BME280;19141;48.980;8.410;2022-07-29T05:47:58;99980.59;;;18.47;86.73
32789;BME280;19141;48.980;8.410;2022-07-29T05:50:23;99990.69;;;18.51;86.61
32789;BME280;19141;48.980;8.410;2022-07-29T05:52:49;99993.28;;;18.58;85.60
32789;BME280;19141;48.980;8.410;2022-07-29T05:55:15;99994.69;;;18.60;85.23
32789;BME280;19141;48.980;8.410;2022-07-29T05:57:40;99994.63;;;18.67;84.93
32789;BME280;19141;48.980;8.410;2022-07-29T06:00:06;99994.63;;;18.67;84.11
32789;BME280;19141;48.980;8.410;2022-07-29T06:02:37;100003.66;;;18.73;83.65
32789;BME280;19141;48.980;8.410;2022-07-29T06:05:03;99997.94;;;18.81;83.12
32789;BME280;19141;48.980;8.410;2022-07-29T06:07:28;100002.16;;;18.88;83.43
32789;BME280;19141;48.980;8.410;2022-07-29T06:09:54;100009.44;;;19.00;82.83
32789;BME280;19141;48.980;8.410;2022-07-29T06:12:19;100020.13;;;19.06;82.23
32789;BME280;19141;48.980;8.410;2022-07-29T06:14:45;100020.94;;;19.18;81.80
32789;BME280;19141;48.980;8.410;2022-07-29T06:17:10;100020.59;;;19.27;81.06
32789;BME280;19141;48.980;8.410;2022-07-29T06:19:37;100025.06;;;19.33;81.21
32789;BME280;19141;48.980;8.410;2022-07-29T06:22:03;100027.75;;;19.44;80.19
32789;BME280;19141;48.980;8.410;2022-07-29T06:24:28;100023.63;;;19.53;78.86
32789;BME280;19141;48.980;8.410;2022-07-29T06:26:54;100018.94;;;19.61;78.70
32789;BME280;19141;48.980;8.410;2022-07-29T06:29:19;100020.44;;;19.68;78.54
32789;BME280;19141;48.980;8.410;2022-07-29T06:31:45;100025.00;;;19.79;76.57
32789;BME280;19141;48.980;8.410;2022-07-29T06:34:10;100028.16;;;19.88;76.02
32789;BME280;19141;48.980;8.410;2022-07-29T06:36:36;100026.59;;;20.04;74.31
32789;BME280;19141;48.980;8.410;2022-07-29T06:39:08;100028.19;;;20.17;73.55
32789;BME280;19141;48.980;8.410;2022-07-29T06:41:34;100026.47;;;20.27;73.51
32789;BME280;19141;48.980;8.410;2022-07-29T06:44:07;100032.09;;;20.38;72.62
32789;BME280;19141;48.980;8.410;2022-07-29T06:46:33;100031.47;;;20.47;72.43
32789;BME280;19141;48.980;8.410;2022-07-29T06:48:58;100032.97;;;20.55;71.77
32789;BME280;19141;48.980;8.410;2022-07-29T06:51:26;100029.88;;;20.63;72.73
32789;BME280;19141;48.980;8.410;2022-07-29T06:53:52;100028.31;;;20.67;71.26
32789;BME280;19141;48.980;8.410;2022-07-29T06:56:18;100034.47;;;20.79;70.91
32789;BME280;19141;48.980;8.410;2022-07-29T06:58:43;100034.06;;;20.88;70.70
32789;BME280;19141;48.980;8.410;2022-07-29T07:01:08;100028.81;;;20.98;70.25
32789;BME280;19141;48.980;8.410;2022-07-29T07:03:34;100035.94;;;21.04;70.27
32789;BME280;19141;48.980;8.410;2022-07-29T07:05:59;100034.13;;;21.09;70.33
32789;BME280;19141;48.980;8.410;2022-07-29T07:08:25;100030.84;;;21.24;68.68
32789;BME280;19141;48.980;8.410;2022-07-29T07:10:51;100033.72;;;21.34;68.50
32789;BME280;19141;48.980;8.410;2022-07-29T07:13:17;100035.53;;;21.46;69.35
32789;BME280;19141;48.980;8.410;2022-07-29T07:15:44;100041.97;;;21.61;67.33
32789;BME280;19141;48.980;8.410;2022-07-29T07:18:10;100047.75;;;21.70;66.64
32789;BME280;19141;48.980;8.410;2022-07-29T07:20:36;100048.72;;;21.81;67.33
32789;BME280;19141;48.980;8.410;2022-07-29T07:23:02;100056.47;;;21.94;66.31
32789;BME280;19141;48.980;8.410;2022-07-29T07:25:28;100049.28;;;22.05;66.59
32789;BME280;19141;48.980;8.410;2022-07-29T07:27:53;100055.66;;;22.15;66.52
32789;BME280;19141;48.980;8.410;2022-07-29T07:30:19;100053.34;;;22.24;66.34
32789;BME280;19141;48.980;8.410;2022-07-29T07:32:44;100052.88;;;22.32;65.78
32789;BME280;19141;48.980;8.410;2022-07-29T07:35:10;100055.75;;;22.47;63.73
32789;BME280;19141;48.980;8.410;2022-07-29T07:37:36;100053.63;;;22.55;63.98
32789;BME280;19141;48.980;8.410;2022-07-29T07:40:03;100056.47;;;22.65;63.81
32789;BME280;19141;48.980;8.410;2022-07-29T07:42:29;100051.47;;;22.84;63.02
32789;BME280;19141;48.980;8.410;2022-07-29T07:44:54;100054.34;;;22.99;62.90
32789;BME280;19141;48.980;8.410;2022-07-29T07:47:20;100050.91;;;23.09;63.73
32789;BME280;19141;48.980;8.410;2022-07-29T07:49:46;100056.66;;;23.17;62.03
32789;BME280;19141;48.980;8.410;2022-07-29T07:52:12;100051.28;;;23.22;60.02
32789;BME280;19141;48.980;8.410;2022-07-29T07:54:38;100051.09;;;23.39;61.08
32789;BME280;19141;48.980;8.410;2022-07-29T07:57:03;100055.81;;;23.54;58.16
32789;BME280;19141;48.980;8.410;2022-07-29T07:59:28;100050.91;;;23.51;57.57
32789;BME280;19141;48.980;8.410;2022-07-29T08:01:54;100057.38;;;23.45;57.79
32789;BME280;19141;48.980;8.410;2022-07-29T08:04:19;100063.09;;;23.43;58.49
32789;BME280;19141;48.980;8.410;2022-07-29T08:06:45;100060.41;;;23.48;58.90
32789;BME280;19141;48.980;8.410;2022-07-29T08:09:10;100062.53;;;23.46;58.33
32789;BME280;19141;48.980;8.410;2022-07-29T08:11:36;100068.78;;;23.47;57.85
32789;BME280;19141;48.980;8.410;2022-07-29T08:14:01;100068.78;;;23.47;59.94
32789;BME280;19141;48.980;8.410;2022-07-29T08:16:27;100067.41;;;23.39;58.18
32789;BME280;19141;48.980;8.410;2022-07-29T08:18:53;100059.50;;;23.38;57.27
32789;BME280;19141;48.980;8.410;2022-07-29T08:21:22;100053.81;;;23.39;58.61
32789;BME280;19141;48.980;8.410;2022-07-29T08:23:49;100060.88;;;23.35;56.29
32789;BME280;19141;48.980;8.410;2022-07-29T08:26:17;100070.97;;;23.45;56.58
32789;BME280;19141;48.980;8.410;2022-07-29T08:28:44;100065.63;;;23.60;57.35
32789;BME280;19141;48.980;8.410;2022-07-29T08:31:10;100068.19;;;23.77;54.81
32789;BME280;19141;48.980;8.410;2022-07-29T08:33:36;100074.22;;;23.84;53.90
32789;BME280;19141;48.980;8.410;2022-07-29T08:36:01;100069.34;;;23.91;53.90
32789;BME280;19141;48.980;8.410;2022-07-29T08:38:27;100074.56;;;24.03;52.28
32789;BME280;19141;48.980;8.410;2022-07-29T08:40:52;100069.94;;;24.03;51.04
32789;BME280;19141;48.980;8.410;2022-07-29T08:43:19;100060.47;;;24.16;52.16
32789;BME280;19141;48.980;8.410;2022-07-29T08:45:46;100073.63;;;24.45;50.88
32789;BME280;19141;48.980;8.410;2022-07-29T08:48:13;100067.13;;;24.61;50.71
32789;BME280;19141;48.980;8.410;2022-07-29T08:50:40;100072.34;;;24.88;49.16
32789;BME280;19141;48.980;8.410;2022-07-29T08:53:09;100072.91;;;25.15;48.53
32789;BME280;19141;48.980;8.410;2022-07-29T08:55:36;100072.59;;;25.02;49.16
32789;BME280;19141;48.980;8.410;2022-07-29T08:58:04;100074.78;;;24.89;48.86
32789;BME280;19141;48.980;8.410;2022-07-29T09:00:31;100062.78;;;24.90;49.23
32789;BME280;19141;48.980;8.410;2022-07-29T09:02:57;100058.19;;;24.91;49.81
32789;BME280;19141;48.980;8.410;2022-07-29T09:05:26;100061.44;;;25.03;48.56
32789;BME280;19141;48.980;8.410;2022-07-29T09:07:52;100066.34;;;25.27;48.58
32789;BME280;19141;48.980;8.410;2022-07-29T09:10:17;100067.97;;;25.38;48.30
32789;BME280;19141;48.980;8.410;2022-07-29T09:12:43;100075.81;;;25.70;48.32
32789;BME280;19141;48.980;8.410;2022-07-29T09:15:09;100073.88;;;25.81;48.30
32789;BME280;19141;48.980;8.410;2022-07-29T09:17:45;100064.56;;;25.97;46.37
32789;BME280;19141;48.980;8.410;2022-07-29T09:20:15;100073.13;;;26.30;45.32
32789;BME280;19141;48.980;8.410;2022-07-29T09:22:41;100053.44;;;26.43;44.52
32789;BME280;19141;48.980;8.410;2022-07-29T09:25:07;100063.38;;;26.68;43.79
32789;BME280;19141;48.980;8.410;2022-07-29T09:27:33;100062.81;;;26.66;44.12
32789;BME280;19141;48.980;8.410;2022-07-29T09:30:07;100057.50;;;26.85;43.43
32789;BME280;19141;48.980;8.410;2022-07-29T09:32:58;100055.25;;;26.92;43.08
32789;BME280;19141;48.980;8.410;2022-07-29T09:35:25;100054.88;;;27.09;43.65
32789;BME280;19141;48.980;8.410;2022-07-29T09:37:51;100045.56;;;27.39;42.74
32789;BME280;19141;48.980;8.410;2022-07-29T09:42:47;100039.06;;;27.82;42.67
32789;BME280;19141;48.980;8.410;2022-07-29T09:45:26;100043.25;;;27.99;42.52
32789;BME280;19141;48.980;8.410;2022-07-29T09:47:52;100045.09;;;27.84;42.11
32789;BME280;19141;48.980;8.410;2022-07-29T09:50:17;100047.22;;;27.88;41.08
32789;BME280;19141;48.980;8.410;2022-07-29T09:52:50;100049.66;;;27.65;40.94
32789;BME280;19141;48.980;8.410;2022-07-29T09:55:17;100045.28;;;27.40;42.42
32789;BME280;19141;48.980;8.410;2022-07-29T09:57:43;100049.25;;;27.53;43.08
32789;BME280;19141;48.980;8.410;2022-07-29T10:00:14;100046.44;;;27.58;42.74
32789;BME280;19141;48.980;8.410;2022-07-29T10:02:42;100051.44;;;27.27;43.28
32789;BME280;19141;48.980;8.410;2022-07-29T10:05:23;100053.38;;;27.21;43.89
32789;BME280;19141;48.980;8.410;2022-07-29T10:07:54;100049.63;;;27.12;43.25
32789;BME280;19141;48.980;8.410;2022-07-29T10:12:53;100042.81;;;27.63;43.85
32789;BME280;19141;48.980;8.410;2022-07-29T10:15:21;100041.34;;;28.18;43.45
32789;BME280;19141;48.980;8.410;2022-07-29T10:17:47;100035.69;;;28.52;42.87
32789;BME280;19141;48.980;8.410;2022-07-29T10:20:13;100043.78;;;28.95;40.73
32789;BME280;19141;48.980;8.410;2022-07-29T10:22:40;100038.59;;;28.93;40.67
32789;BME280;19141;48.980;8.410;2022-07-29T10:25:08;100035.88;;;28.56;40.06
32789;BME280;19141;48.980;8.410;2022-07-29T10:27:35;100034.16;;;28.79;40.12
32789;BME280;19141;48.980;8.410;2022-07-29T10:30:01;100026.75;;;28.98;39.29
32789;BME280;19141;48.980;8.410;2022-07-29T10:35:15;100017.78;;;29.66;37.54
32789;BME280;19141;48.980;8.410;2022-07-29T10:46:35;100005.97;;;31.42;34.64
32789;BME280;19141;48.980;8.410;2022-07-29T10:54:17;100009.09;;;32.23;33.89
32789;BME280;19141;48.980;8.410;2022-07-29T10:56:43;100007.81;;;32.55;32.56
32789;BME280;19141;48.980;8.410;2022-07-29T11:01:47;100018.69;;;32.43;31.42
32789;BME280;19141;48.980;8.410;2022-07-29T11:04:13;100014.59;;;32.23;29.80
32789;BME280;19141;48.980;8.410;2022-07-29T11:09:27;100009.09;;;32.32;31.02
32789;BME280;19141;48.980;8.410;2022-07-29T11:11:55;100008.91;;;32.98;30.41
32789;BME280;19141;48.980;8.410;2022-07-29T11:14:54;100002.41;;;33.02;29.36
32789;BME280;19141;48.980;8.410;2022-07-29T11:17:20;100000.97;;;33.43;29.83
32789;BME280;19141;48.980;8.410;2022-07-29T11:19:46;100000.91;;;33.60;29.41
32789;BME280;19141;48.980;8.410;2022-07-29T11:22:32;100009.47;;;33.97;29.54
32789;BME280;19141;48.980;8.410;2022-07-29T11:25:17;100002.06;;;34.10;28.37
32789;BME280;19141;48.980;8.410;2022-07-29T11:27:44;100008.38;;;33.60;28.80
32789;BME280;19141;48.980;8.410;2022-07-29T11:30:10;100009.53;;;33.59;27.67
32789;BME280;19141;48.980;8.410;2022-07-29T11:32:42;100006.25;;;34.16;28.74
32789;BME280;19141;48.980;8.410;2022-07-29T11:35:20;100011.72;;;34.24;28.52
32789;BME280;19141;48.980;8.410;2022-07-29T11:46:45;100007.69;;;34.43;27.41
32789;BME280;19141;48.980;8.410;2022-07-29T11:49:12;100013.47;;;34.29;26.36
32789;BME280;19141;48.980;8.410;2022-07-29T11:51:38;100007.19;;;34.20;26.15
32789;BME280;19141;48.980;8.410;2022-07-29T11:54:05;100001.41;;;33.92;27.01
32789;BME280;19141;48.980;8.410;2022-07-29T11:56:34;100006.56;;;34.77;26.44
32789;BME280;19141;48.980;8.410;2022-07-29T11:59:06;100008.81;;;34.42;27.68
32789;BME280;19141;48.980;8.410;2022-07-29T12:01:34;100000.72;;;33.95;27.38
32789;BME280;19141;48.980;8.410;2022-07-29T12:04:04;100010.06;;;33.52;28.67
32789;BME280;19141;48.980;8.410;2022-07-29T12:06:30;100017.69;;;32.91;30.11
32789;BME280;19141;48.980;8.410;2022-07-29T12:08:56;100007.34;;;32.36;31.23
32789;BME280;19141;48.980;8.410;2022-07-29T12:11:21;100010.78;;;31.76;30.73
32789;BME280;19141;48.980;8.410;2022-07-29T12:13:47;100011.72;;;31.63;30.73
32789;BME280;19141;48.980;8.410;2022-07-29T12:16:13;100016.09;;;30.57;31.42
32789;BME280;19141;48.980;8.410;2022-07-29T12:18:38;100009.63;;;30.75;30.95
32789;BME280;19141;48.980;8.410;2022-07-29T12:21:04;100006.88;;;30.52;32.36
32789;BME280;19141;48.980;8.410;2022-07-29T12:23:31;100011.34;;;30.48;32.27
32789;BME280;19141;48.980;8.410;2022-07-29T12:25:58;100007.28;;;30.46;33.61
32789;BME280;19141;48.980;8.410;2022-07-29T12:28:23;100012.84;;;30.32;32.91
32789;BME280;19141;48.980;8.410;2022-07-29T12:30:50;100003.84;;;30.40;33.86
32789;BME280;19141;48.980;8.410;2022-07-29T12:33:27;100004.03;;;30.44;33.10
32789;BME280;19141;48.980;8.410;2022-07-29T12:35:55;99996.81;;;30.12;34.04
32789;BME280;19141;48.980;8.410;2022-07-29T12:38:22;100006.56;;;30.18;33.77
32789;BME280;19141;48.980;8.410;2022-07-29T12:40:48;99997.63;;;30.12;35.09
32789;BME280;19141;48.980;8.410;2022-07-29T12:43:20;99996.19;;;30.15;33.76
32789;BME280;19141;48.980;8.410;2022-07-29T12:45:47;99994.00;;;29.89;32.89
32789;BME280;19141;48.980;8.410;2022-07-29T12:48:14;99986.78;;;29.80;34.06
32789;BME280;19141;48.980;8.410;2022-07-29T12:50:57;99990.09;;;30.04;36.36
32789;BME280;19141;48.980;8.410;2022-07-29T12:53:23;99989.38;;;30.12;35.27
32789;BME280;19141;48.980;8.410;2022-07-29T12:55:51;99990.06;;;30.18;34.21
32789;BME280;19141;48.980;8.410;2022-07-29T12:58:37;100001.00;;;30.32;34.15
32789;BME280;19141;48.980;8.410;2022-07-29T13:01:11;99990.28;;;30.21;33.19
32789;BME280;19141;48.980;8.410;2022-07-29T13:03:54;99998.31;;;30.18;33.37
32789;BME280;19141;48.980;8.410;2022-07-29T13:06:34;100002.88;;;30.22;33.41
32789;BME280;19141;48.980;8.410;2022-07-29T13:09:04;100011.56;;;30.02;32.87
32789;BME280;19141;48.980;8.410;2022-07-29T13:11:34;100008.03;;;29.88;32.46
32789;BME280;19141;48.980;8.410;2022-07-29T13:14:00;100011.38;;;29.71;33.03
32789;BME280;19141;48.980;8.410;2022-07-29T13:16:27;100010.41;;;29.67;33.37
32789;BME280;19141;48.980;8.410;2022-07-29T13:19:06;100016.78;;;29.62;34.35
32789;BME280;19141;48.980;8.410;2022-07-29T13:21:33;100014.53;;;29.78;34.30
32789;BME280;19141;48.980;8.410;2022-07-29T13:23:59;100026.16;;;29.61;33.40
32789;BME280;19141;48.980;8.410;2022-07-29T13:26:24;100032.19;;;29.44;33.73
32789;BME280;19141;48.980;8.410;2022-07-29T13:28:49;100032.56;;;29.24;32.36
32789;BME280;19141;48.980;8.410;2022-07-29T13:31:15;100035.50;;;29.14;33.37
32789;BME280;19141;48.980;8.410;2022-07-29T13:33:40;100026.66;;;29.03;33.41
32789;BME280;19141;48.980;8.410;2022-07-29T13:36:06;100028.28;;;29.04;33.27
32789;BME280;19141;48.980;8.410;2022-07-29T13:38:31;100025.41;;;28.96;34.35
32789;BME280;19141;48.980;8.410;2022-07-29T13:40:57;100027.03;;;28.97;33.16
32789;BME280;19141;48.980;8.410;2022-07-29T13:43:23;100028.06;;;28.82;32.84
32789;BME280;19141;48.980;8.410;2022-07-29T13:45:48;100020.28;;;28.89;33.27
32789;BME280;19141;48.980;8.410;2022-07-29T13:48:14;100026.50;;;28.95;33.77
32789;BME280;19141;48.980;8.410;2022-07-29T13:50:39;100022.69;;;28.96;33.77
32789;BME280;19141;48.980;8.410;2022-07-29T13:53:05;100018.34;;;29.08;33.87
32789;BME280;19141;48.980;8.410;2022-07-29T13:55:30;100011.34;;;29.16;34.97
32789;BME280;19141;48.980;8.410;2022-07-29T13:57:56;100007.81;;;29.29;33.96
32789;BME280;19141;48.980;8.410;2022-07-29T14:00:21;100009.53;;;29.25;33.89
32789;BME280;19141;48.980;8.410;2022-07-29T14:02:48;100005.16;;;29.38;34.65
32789;BME280;19141;48.980;8.410;2022-07-29T14:05:14;100007.59;;;29.39;33.09
32789;BME280;19141;48.980;8.410;2022-07-29T14:07:39;100002.00;;;29.31;32.36
32789;BME280;19141;48.980;8.410;2022-07-29T14:10:05;100010.03;;;29.27;32.00
32789;BME280;19141;48.980;8.410;2022-07-29T14:12:31;100013.28;;;29.29;32.55
32789;BME280;19141;48.980;8.410;2022-07-29T14:14:56;100012.34;;;29.20;32.99
32789;BME280;19141;48.980;8.410;2022-07-29T14:17:22;100009.22;;;29.27;33.04
32789;BME280;19141;48.980;8.410;2022-07-29T14:19:48;100001.81;;;29.41;32.93
32789;BME280;19141;48.980;8.410;2022-07-29T14:22:13;99993.56;;;29.27;32.92
32789;BME280;19141;48.980;8.410;2022-07-29T14:24:39;99999.28;;;29.31;32.97
32789;BME280;19141;48.980;8.410;2022-07-29T14:27:05;99998.75;;;29.15;32.90
32789;BME280;19141;48.980;8.410;2022-07-29T14:29:32;100000.13;;;28.99;32.83
32789;BME280;19141;48.980;8.410;2022-07-29T14:31:57;100004.50;;;29.00;34.04
32789;BME280;19141;48.980;8.410;2022-07-29T14:34:23;100006.84;;;29.06;33.21
32789;BME280;19141;48.980;8.410;2022-07-29T14:36:49;100001.44;;;29.01;33.15
32789;BME280;19141;48.980;8.410;2022-07-29T14:39:14;100004.13;;;28.87;33.15
32789;BME280;19141;48.980;8.410;2022-07-29T14:41:40;100004.31;;;28.96;32.04
32789;BME280;19141;48.980;8.410;2022-07-29T14:44:06;99992.75;;;28.80;32.32
32789;BME280;19141;48.980;8.410;2022-07-29T14:46:31;100000.81;;;28.90;32.83
32789;BME280;19141;48.980;8.410;2022-07-29T14:48:57;99999.31;;;28.98;33.28
32789;BME280;19141;48.980;8.410;2022-07-29T14:51:22;100000.88;;;29.04;32.78
32789;BME280;19141;48.980;8.410;2022-07-29T14:53:47;99995.31;;;28.90;32.27
32789;BME280;19141;48.980;8.410;2022-07-29T14:56:13;99993.69;;;28.89;32.87
32789;BME280;19141;48.980;8.410;2022-07-29T14:58:38;100000.94;;;28.99;32.81
32789;BME280;19141;48.980;8.410;2022-07-29T15:01:04;99992.56;;;29.09;34.09
32789;BME280;19141;48.980;8.410;2022-07-29T15:03:29;99985.63;;;29.12;31.93
32789;BME280;19141;48.980;8.410;2022-07-29T15:05:55;99997.00;;;29.19;32.35
32789;BME280;19141;48.980;8.410;2022-07-29T15:08:20;100000.47;;;29.11;31.26
32789;BME280;19141;48.980;8.410;2022-07-29T15:10:46;99998.53;;;29.11;31.33
32789;BME280;19141;48.980;8.410;2022-07-29T15:13:11;99991.75;;;29.09;32.21
32789;BME280;19141;48.980;8.410;2022-07-29T15:15:37;100003.19;;;28.97;31.00
32789;BME280;19141;48.980;8.410;2022-07-29T15:18:03;99998.38;;;28.89;30.63
32789;BME280;19141;48.980;8.410;2022-07-29T15:20:29;99992.63;;;28.72;30.48
32789;BME280;19141;48.980;8.410;2022-07-29T15:22:55;99984.09;;;28.73;31.23
32789;BME280;19141;48.980;8.410;2022-07-29T15:25:22;99998.09;;;28.72;31.49
32789;BME280;19141;48.980;8.410;2022-07-29T15:27:48;99992.50;;;28.63;31.14
32789;BME280;19141;48.980;8.410;2022-07-29T15:30:13;99989.84;;;28.58;30.02
32789;BME280;19141;48.980;8.410;2022-07-29T15:32:42;99986.50;;;28.61;30.62
32789;BME280;19141;48.980;8.410;2022-07-29T15:35:08;99986.34;;;28.71;30.87
32789;BME280;19141;48.980;8.410;2022-07-29T15:37:36;99984.94;;;28.87;30.50
32789;BME280;19141;48.980;8.410;2022-07-29T15:40:02;99982.44;;;28.91;31.67
32789;BME280;19141;48.980;8.410;2022-07-29T15:42:27;99989.25;;;28.93;30.29
32789;BME280;19141;48.980;8.410;2022-07-29T15:44:52;99997.03;;;28.86;31.01
32789;BME280;19141;48.980;8.410;2022-07-29T15:47:18;99985.88;;;28.83;30.72
32789;BME280;19141;48.980;8.410;2022-07-29T15:49:43;99992.25;;;28.78;29.86
32789;BME280;19141;48.980;8.410;2022-07-29T15:52:10;99993.22;;;28.69;30.35
32789;BME280;19141;48.980;8.410;2022-07-29T15:54:37;99990.34;;;28.60;29.79
32789;BME280;19141;48.980;8.410;2022-07-29T15:57:03;99985.84;;;28.69;30.72
32789;BME280;19141;48.980;8.410;2022-07-29T15:59:30;99981.00;;;28.61;30.40
32789;BME280;19141;48.980;8.410;2022-07-29T16:01:56;99984.28;;;28.63;30.96
32789;BME280;19141;48.980;8.410;2022-07-29T16:04:22;99981.44;;;28.68;31.76
32789;BME280;19141;48.980;8.410;2022-07-29T16:06:50;99981.53;;;28.63;30.39
32789;BME280;19141;48.980;8.410;2022-07-29T16:09:16;99983.25;;;28.59;30.36
32789;BME280;19141;48.980;8.410;2022-07-29T16:11:42;99982.50;;;28.53;29.92
32789;BME280;19141;48.980;8.410;2022-07-29T16:14:08;99976.59;;;28.46;30.31
32789;BME280;19141;48.980;8.410;2022-07-29T16:16:35;99977.06;;;28.34;31.18
32789;BME280;19141;48.980;8.410;2022-07-29T16:19:00;99971.72;;;28.24;30.76
32789;BME280;19141;48.980;8.410;2022-07-29T16:21:26;99969.50;;;28.26;31.22
32789;BME280;19141;48.980;8.410;2022-07-29T16:23:51;99975.28;;;28.25;30.82
32789;BME280;19141;48.980;8.410;2022-07-29T16:26:17;99976.16;;;28.20;31.48
32789;BME280;19141;48.980;8.410;2022-07-29T16:28:42;99973.72;;;28.19;31.56
32789;BME280;19141;48.980;8.410;2022-07-29T16:31:08;99966.00;;;28.02;31.99
32789;BME280;19141;48.980;8.410;2022-07-29T16:33:33;99968.25;;;28.00;32.15
32789;BME280;19141;48.980;8.410;2022-07-29T16:35:59;99959.97;;;28.05;33.00
32789;BME280;19141;48.980;8.410;2022-07-29T16:38:24;99965.50;;;28.00;32.51
32789;BME280;19141;48.980;8.410;2022-07-29T16:40:50;99961.06;;;28.04;32.95
32789;BME280;19141;48.980;8.410;2022-07-29T16:43:15;99965.50;;;28.00;33.10
32789;BME280;19141;48.980;8.410;2022-07-29T16:45:41;99967.84;;;27.88;33.06
32789;BME280;19141;48.980;8.410;2022-07-29T16:48:06;99962.31;;;27.93;33.32
32789;BME280;19141;48.980;8.410;2022-07-29T16:50:32;99957.97;;;27.92;33.31
32789;BME280;19141;48.980;8.410;2022-07-29T16:52:57;99963.34;;;27.97;32.16
32789;BME280;19141;48.980;8.410;2022-07-29T16:55:23;99963.06;;;27.98;31.98
32789;BME280;19141;48.980;8.410;2022-07-29T16:57:48;99959.72;;;28.01;32.76
32789;BME280;19141;48.980;8.410;2022-07-29T17:00:15;99958.84;;;28.06;32.75
32789;BME280;19141;48.980;8.410;2022-07-29T17:02:41;99951.13;;;28.08;32.54
32789;BME280;19141;48.980;8.410;2022-07-29T17:05:07;99953.38;;;28.06;32.38
32789;BME280;19141;48.980;8.410;2022-07-29T17:07:33;99957.97;;;28.10;32.52
32789;BME280;19141;48.980;8.410;2022-07-29T17:09:59;99958.69;;;28.16;32.65
32789;BME280;19141;48.980;8.410;2022-07-29T17:12:24;99951.22;;;28.22;32.51
32789;BME280;19141;48.980;8.410;2022-07-29T17:14:50;99961.66;;;28.20;32.41
32789;BME280;19141;48.980;8.410;2022-07-29T17:17:15;99957.06;;;28.15;31.96
32789;BME280;19141;48.980;8.410;2022-07-29T17:19:41;99962.47;;;28.20;32.20
32789;BME280;19141;48.980;8.410;2022-07-29T17:22:07;99959.50;;;28.17;32.49
32789;BME280;19141;48.980;8.410;2022-07-29T17:24:33;99965.50;;;28.19;32.75
32789;BME280;19141;48.980;8.410;2022-07-29T17:26:58;99963.66;;;28.14;31.68
32789;BME280;19141;48.980;8.410;2022-07-29T17:29:24;99963.94;;;28.12;32.03
32789;BME280;19141;48.980;8.410;2022-07-29T17:31:49;99965.28;;;28.15;30.76
32789;BME280;19141;48.980;8.410;2022-07-29T17:34:15;99974.09;;;28.12;30.53
32789;BME280;19141;48.980;8.410;2022-07-29T17:36:40;99967.88;;;28.06;30.79
32789;BME280;19141;48.980;8.410;2022-07-29T17:39:07;99969.50;;;28.07;31.35
32789;BME280;19141;48.980;8.410;2022-07-29T17:41:33;99971.78;;;28.00;31.13
32789;BME280;19141;48.980;8.410;2022-07-29T17:43:58;99975.03;;;28.02;31.23
32789;BME280;19141;48.980;8.410;2022-07-29T17:46:27;99970.09;;;27.85;31.84
32789;BME280;19141;48.980;8.410;2022-07-29T17:48:54;99982.94;;;27.85;32.12
32789;BME280;19141;48.980;8.410;2022-07-29T17:51:21;99976.66;;;27.84;33.14